Current Conditions

Updated: 25-Nov-2017 03:22 AM  
Summary / Temperature Wind Rain






Feels like: 49°F

1-hour difference
0.1°F 0.1°F colder than last hour.

24-hour difference
2.4°F2.4°F colder than yesterday at this time.

  Today Yesterday
High: 52.4°F
12:00 AM
72.5°F
1:31 PM
Low: 48.3°F
2:34 AM
49.2°F
4:42 AM
Calm S
0.0
Gust:  0.0 mph
0 Beaufort - Calm

Today: 0.0 - 11:08 AM
Month: 9.0 mph - Nov 17
Rain Today: 0.00 in
Current Rate (/hr): 0.000 in
Max Rate (/hr):
Rain Yesterday: 0.00 in
Storm Rain: 0.00 in
This Month: 0.40 in
Season Total: 0.53 in
Last Rain Event: 6 days ago
Humidity / Barometer Sun / Moon
Humidity: 95 Increased 2.0% in the last hour.
Dew Point: 47.6°F Increased 0.3°F in the last hour.
Barometer: 30.014 inHg  
Baro Trend: Steady
Sunrise: 6:44 AM
Sunset: 4:43 PM
Moonrise: 12:07 PM
Moonset: 10:05 PM
Sky Conditions UV Index
Summary: Mist, Clear
Visibility: 1 ½ miles
Clouds: None
KVIS - 3:06 AM PST
Current: 0.0  None 
Saturday: 2.8  Low 
Sunday: 2.7  Low 
Air Quality Fire Danger
 Unhealthy for Sensitive Groups 
Ozone 18 ppb
PM 2.5 49 μg/m3
3:20 AM PST
Current: 0  Low 

Local Alerts Local Forecast
Local NWS Alerts
Today

Hazy

High 75
Tonight

Partly
Cloudy
Low 50
Sun

Partly
Cloudy
High 76
Sun night

Rain
Showers
Low 47
Mon

Rain
Showers
High 60
Mon night

Partly
Cloudy
Low 41
Tue

Hazy

High 61

Local Radar Local Satellite Neighborhood Cam Sky Cam
Local Radar Local Satellite Neighborhood Cam Sky Cam


Nearby Personal Stations

Weather Underground PWS KCAEXETE7     Weather Underground PWS KCAEXETE6     Weather Underground PWS KCAEXETE11

Nearby Airport Stations

KVIS - Visalia, California, USA
Distance from station: W 14mi, 23km
Updated: Sat, 25-Nov-2017 3:06am PST
Mist, Clear
Mist, Clear
 Wind from calm
Wind: Calm
Temperature: 48°F , 9°C
Dew Point: 46°F , 8°C
Humidity: 94%
Barometer: 30.02 inHg , 1016.6 hPa
Summary: Mist
Clouds: Clear
Visibility: 1 1/2 miles , 2 km
2017/11/25 11:06 KVIS 251106Z AUTO 00000KT 1 1/2SM BR CLR 09/08 A3002 RMK AO2
KPTV - Porterville, California, USA
Distance from station: SSE 19mi, 31km
Updated: Sat, 25-Nov-2017 2:56am PST
Haze, Clear
Haze, Clear
 Wind from ENE
Wind: ENE 3 mph , 6 km/h
Temperature: 52°F , 11°C
Dew Point: 46°F , 8°C
Humidity: 82%
Barometer: 30.03 inHg , 1016.9 hPa
Summary: Haze
Clouds: Clear
Visibility: 6 miles , 10 km
2017/11/25 10:56 KPTV 251056Z AUTO 07003KT 6SM HZ CLR 11/08 A3003 RMK AO2 SLP180 T01060078

Metar display script from Saratoga-Weather.org



Visitor Map